sensor_id;sensor_type;location;lat;lon;timestamp;P1;durP1;ratioP1;P2;durP2;ratioP2
34725;SDS011;20951;50.818;4.344;2023-04-01T00:01:12;15.75;;;3.60;;
34725;SDS011;20951;50.818;4.344;2023-04-01T00:03:41;15.50;;;3.58;;
34725;SDS011;20951;50.818;4.344;2023-04-01T00:06:11;15.65;;;3.78;;
34725;SDS011;20951;50.818;4.344;2023-04-01T00:08:41;15.13;;;3.90;;
34725;SDS011;20951;50.818;4.344;2023-04-01T00:11:10;14.77;;;3.80;;
34725;SDS011;20951;50.818;4.344;2023-04-01T00:13:40;14.73;;;3.90;;
34725;SDS011;20951;50.818;4.344;2023-04-01T00:16:08;15.88;;;4.00;;
34725;SDS011;20951;50.818;4.344;2023-04-01T00:18:36;11.85;;;3.63;;
34725;SDS011;20951;50.818;4.344;2023-04-01T00:21:05;11.57;;;3.60;;
34725;SDS011;20951;50.818;4.344;2023-04-01T00:23:33;13.10;;;3.50;;
34725;SDS011;20951;50.818;4.344;2023-04-01T00:26:02;16.80;;;3.92;;
34725;SDS011;20951;50.818;4.344;2023-04-01T00:28:31;17.58;;;3.60;;
34725;SDS011;20951;50.818;4.344;2023-04-01T00:31:05;11.27;;;3.60;;
34725;SDS011;20951;50.818;4.344;2023-04-01T00:33:33;12.57;;;3.05;;
34725;SDS011;20951;50.818;4.344;2023-04-01T00:36:09;16.02;;;3.35;;
34725;SDS011;20951;50.818;4.344;2023-04-01T00:38:39;11.75;;;3.35;;
34725;SDS011;20951;50.818;4.344;2023-04-01T00:41:13;13.68;;;3.63;;
34725;SDS011;20951;50.818;4.344;2023-04-01T00:43:42;12.48;;;2.88;;
34725;SDS011;20951;50.818;4.344;2023-04-01T00:46:12;11.30;;;3.08;;
34725;SDS011;20951;50.818;4.344;2023-04-01T00:48:44;14.55;;;4.07;;
34725;SDS011;20951;50.818;4.344;2023-04-01T00:51:25;10.40;;;4.00;;
34725;SDS011;20951;50.818;4.344;2023-04-01T00:53:56;11.52;;;3.70;;
34725;SDS011;20951;50.818;4.344;2023-04-01T00:56:45;10.02;;;3.50;;
34725;SDS011;20951;50.818;4.344;2023-04-01T00:59:18;13.20;;;4.43;;
34725;SDS011;20951;50.818;4.344;2023-04-01T01:01:50;10.88;;;4.20;;
34725;SDS011;20951;50.818;4.344;2023-04-01T01:12:13;7.40;;;2.42;;
34725;SDS011;20951;50.818;4.344;2023-04-01T01:15:10;11.00;;;3.67;;
34725;SDS011;20951;50.818;4.344;2023-04-01T01:26:31;10.38;;;4.32;;
34725;SDS011;20951;50.818;4.344;2023-04-01T01:34:53;10.57;;;3.65;;
34725;SDS011;20951;50.818;4.344;2023-04-01T01:37:46;11.40;;;4.03;;
34725;SDS011;20951;50.818;4.344;2023-04-01T01:40:16;9.80;;;3.20;;
34725;SDS011;20951;50.818;4.344;2023-04-01T01:42:48;7.93;;;3.13;;
34725;SDS011;20951;50.818;4.344;2023-04-01T01:45:19;6.82;;;3.17;;
34725;SDS011;20951;50.818;4.344;2023-04-01T01:47:51;8.13;;;3.63;;
34725;SDS011;20951;50.818;4.344;2023-04-01T01:50:20;13.18;;;4.13;;
34725;SDS011;20951;50.818;4.344;2023-04-01T01:52:51;11.35;;;4.90;;
34725;SDS011;20951;50.818;4.344;2023-04-01T01:55:33;10.05;;;4.63;;
34725;SDS011;20951;50.818;4.344;2023-04-01T01:58:07;10.15;;;4.63;;
34725;SDS011;20951;50.818;4.344;2023-04-01T02:00:44;10.45;;;5.63;;
34725;SDS011;20951;50.818;4.344;2023-04-01T02:03:16;11.98;;;6.00;;
34725;SDS011;20951;50.818;4.344;2023-04-01T02:05:47;14.75;;;7.15;;
34725;SDS011;20951;50.818;4.344;2023-04-01T02:08:21;14.52;;;7.97;;
34725;SDS011;20951;50.818;4.344;2023-04-01T02:11:04;17.65;;;8.07;;
34725;SDS011;20951;50.818;4.344;2023-04-01T02:13:35;14.70;;;6.70;;
34725;SDS011;20951;50.818;4.344;2023-04-01T02:16:34;16.50;;;7.00;;
34725;SDS011;20951;50.818;4.344;2023-04-01T02:19:10;11.10;;;5.68;;
34725;SDS011;20951;50.818;4.344;2023-04-01T02:21:39;12.23;;;5.70;;
34725;SDS011;20951;50.818;4.344;2023-04-01T02:24:12;13.68;;;5.97;;
34725;SDS011;20951;50.818;4.344;2023-04-01T02:26:41;11.38;;;6.05;;
34725;SDS011;20951;50.818;4.344;2023-04-01T02:29:11;14.15;;;6.50;;
34725;SDS011;20951;50.818;4.344;2023-04-01T02:31:41;14.05;;;6.50;;
34725;SDS011;20951;50.818;4.344;2023-04-01T02:34:10;15.50;;;6.28;;
34725;SDS011;20951;50.818;4.344;2023-04-01T02:36:38;15.15;;;6.47;;
34725;SDS011;20951;50.818;4.344;2023-04-01T02:39:07;13.77;;;6.82;;
34725;SDS011;20951;50.818;4.344;2023-04-01T02:41:40;15.23;;;6.97;;
34725;SDS011;20951;50.818;4.344;2023-04-01T02:44:10;15.73;;;6.07;;
34725;SDS011;20951;50.818;4.344;2023-04-01T02:46:40;17.13;;;6.00;;
34725;SDS011;20951;50.818;4.344;2023-04-01T02:49:08;15.82;;;5.88;;
34725;SDS011;20951;50.818;4.344;2023-04-01T02:51:37;10.13;;;5.40;;
34725;SDS011;20951;50.818;4.344;2023-04-01T02:54:06;13.48;;;6.20;;
34725;SDS011;20951;50.818;4.344;2023-04-01T02:56:34;18.42;;;6.32;;
34725;SDS011;20951;50.818;4.344;2023-04-01T02:59:04;18.00;;;7.00;;
34725;SDS011;20951;50.818;4.344;2023-04-01T03:01:32;14.88;;;7.00;;
34725;SDS011;20951;50.818;4.344;2023-04-01T03:04:01;18.52;;;8.35;;
34725;SDS011;20951;50.818;4.344;2023-04-01T03:06:30;25.77;;;8.68;;
34725;SDS011;20951;50.818;4.344;2023-04-01T03:08:58;18.25;;;9.02;;
34725;SDS011;20951;50.818;4.344;2023-04-01T03:11:27;15.32;;;8.32;;
34725;SDS011;20951;50.818;4.344;2023-04-01T03:13:57;22.25;;;9.70;;
34725;SDS011;20951;50.818;4.344;2023-04-01T03:16:25;19.40;;;9.45;;
34725;SDS011;20951;50.818;4.344;2023-04-01T03:18:53;18.20;;;9.65;;
34725;SDS011;20951;50.818;4.344;2023-04-01T03:21:24;17.77;;;9.18;;
34725;SDS011;20951;50.818;4.344;2023-04-01T03:23:53;19.20;;;10.02;;
34725;SDS011;20951;50.818;4.344;2023-04-01T03:26:22;20.98;;;10.40;;
34725;SDS011;20951;50.818;4.344;2023-04-01T03:28:52;18.90;;;10.23;;
34725;SDS011;20951;50.818;4.344;2023-04-01T03:31:21;18.90;;;10.73;;
34725;SDS011;20951;50.818;4.344;2023-04-01T03:33:50;19.10;;;9.60;;
34725;SDS011;20951;50.818;4.344;2023-04-01T03:36:18;25.33;;;11.00;;
34725;SDS011;20951;50.818;4.344;2023-04-01T03:38:47;20.52;;;10.60;;
34725;SDS011;20951;50.818;4.344;2023-04-01T03:41:16;19.95;;;10.35;;
34725;SDS011;20951;50.818;4.344;2023-04-01T03:43:45;27.65;;;11.23;;
34725;SDS011;20951;50.818;4.344;2023-04-01T03:46:17;24.92;;;11.45;;
34725;SDS011;20951;50.818;4.344;2023-04-01T03:48:45;25.85;;;11.07;;
34725;SDS011;20951;50.818;4.344;2023-04-01T03:51:16;25.05;;;10.90;;
34725;SDS011;20951;50.818;4.344;2023-04-01T03:53:46;21.40;;;9.50;;
34725;SDS011;20951;50.818;4.344;2023-04-01T03:56:15;22.60;;;9.75;;
34725;SDS011;20951;50.818;4.344;2023-04-01T03:58:44;21.27;;;10.48;;
34725;SDS011;20951;50.818;4.344;2023-04-01T04:01:20;20.50;;;9.48;;
34725;SDS011;20951;50.818;4.344;2023-04-01T04:03:48;25.15;;;9.60;;
34725;SDS011;20951;50.818;4.344;2023-04-01T04:06:18;20.15;;;9.82;;
34725;SDS011;20951;50.818;4.344;2023-04-01T04:08:46;16.42;;;9.02;;
34725;SDS011;20951;50.818;4.344;2023-04-01T04:11:15;18.75;;;8.90;;
34725;SDS011;20951;50.818;4.344;2023-04-01T04:13:44;24.52;;;8.60;;
34725;SDS011;20951;50.818;4.344;2023-04-01T04:16:17;17.98;;;9.23;;
34725;SDS011;20951;50.818;4.344;2023-04-01T04:18:46;22.58;;;9.85;;
34725;SDS011;20951;50.818;4.344;2023-04-01T04:21:16;19.25;;;9.27;;
34725;SDS011;20951;50.818;4.344;2023-04-01T04:23:44;18.55;;;9.30;;
34725;SDS011;20951;50.818;4.344;2023-04-01T04:26:13;16.95;;;8.65;;
34725;SDS011;20951;50.818;4.344;2023-04-01T04:28:42;16.98;;;8.30;;
34725;SDS011;20951;50.818;4.344;2023-04-01T04:31:10;19.45;;;8.65;;
34725;SDS011;20951;50.818;4.344;2023-04-01T04:36:12;19.35;;;9.52;;
34725;SDS011;20951;50.818;4.344;2023-04-01T04:38:40;20.83;;;9.73;;
34725;SDS011;20951;50.818;4.344;2023-04-01T04:41:12;20.40;;;9.80;;
34725;SDS011;20951;50.818;4.344;2023-04-01T04:43:42;16.38;;;8.85;;
34725;SDS011;20951;50.818;4.344;2023-04-01T04:46:15;17.48;;;8.57;;
34725;SDS011;20951;50.818;4.344;2023-04-01T04:48:43;15.77;;;8.50;;
34725;SDS011;20951;50.818;4.344;2023-04-01T04:51:12;16.58;;;8.80;;
34725;SDS011;20951;50.818;4.344;2023-04-01T04:53:42;13.35;;;7.57;;
34725;SDS011;20951;50.818;4.344;2023-04-01T04:56:10;13.80;;;8.13;;
34725;SDS011;20951;50.818;4.344;2023-04-01T04:58:39;18.30;;;9.15;;
34725;SDS011;20951;50.818;4.344;2023-04-01T05:01:11;12.95;;;7.68;;
34725;SDS011;20951;50.818;4.344;2023-04-01T05:03:40;13.32;;;7.85;;
34725;SDS011;20951;50.818;4.344;2023-04-01T05:06:11;13.32;;;7.30;;
34725;SDS011;20951;50.818;4.344;2023-04-01T05:08:40;12.48;;;6.55;;
34725;SDS011;20951;50.818;4.344;2023-04-01T05:11:14;10.73;;;6.80;;
34725;SDS011;20951;50.818;4.344;2023-04-01T05:13:43;11.70;;;6.80;;
34725;SDS011;20951;50.818;4.344;2023-04-01T05:16:13;11.45;;;6.35;;
34725;SDS011;20951;50.818;4.344;2023-04-01T05:18:43;14.05;;;6.32;;
34725;SDS011;20951;50.818;4.344;2023-04-01T05:21:13;12.02;;;6.75;;
34725;SDS011;20951;50.818;4.344;2023-04-01T05:23:42;11.98;;;6.80;;
34725;SDS011;20951;50.818;4.344;2023-04-01T05:26:11;13.35;;;7.05;;
34725;SDS011;20951;50.818;4.344;2023-04-01T05:28:40;16.88;;;7.38;;
34725;SDS011;20951;50.818;4.344;2023-04-01T05:31:08;15.27;;;7.85;;
34725;SDS011;20951;50.818;4.344;2023-04-01T05:33:37;15.93;;;8.50;;
34725;SDS011;20951;50.818;4.344;2023-04-01T05:36:09;15.57;;;8.57;;
34725;SDS011;20951;50.818;4.344;2023-04-01T05:38:39;16.63;;;7.78;;
34725;SDS011;20951;50.818;4.344;2023-04-01T05:41:10;18.73;;;8.63;;
34725;SDS011;20951;50.818;4.344;2023-04-01T05:43:39;16.50;;;9.05;;
34725;SDS011;20951;50.818;4.344;2023-04-01T05:46:08;15.38;;;10.00;;
34725;SDS011;20951;50.818;4.344;2023-04-01T05:48:37;16.92;;;9.88;;
34725;SDS011;20951;50.818;4.344;2023-04-01T05:51:05;20.90;;;10.95;;
34725;SDS011;20951;50.818;4.344;2023-04-01T05:53:38;17.92;;;11.32;;
34725;SDS011;20951;50.818;4.344;2023-04-01T05:56:07;21.60;;;12.00;;
34725;SDS011;20951;50.818;4.344;2023-04-01T05:58:37;23.33;;;13.05;;
34725;SDS011;20951;50.818;4.344;2023-04-01T06:01:06;25.55;;;13.50;;
34725;SDS011;20951;50.818;4.344;2023-04-01T06:03:36;22.77;;;12.45;;
34725;SDS011;20951;50.818;4.344;2023-04-01T06:06:05;24.60;;;13.88;;
34725;SDS011;20951;50.818;4.344;2023-04-01T06:08:41;31.80;;;15.68;;
34725;SDS011;20951;50.818;4.344;2023-04-01T06:14:05;26.08;;;14.20;;
34725;SDS011;20951;50.818;4.344;2023-04-01T06:16:59;25.23;;;13.55;;
34725;SDS011;20951;50.818;4.344;2023-04-01T06:19:57;21.20;;;12.02;;
34725;SDS011;20951;50.818;4.344;2023-04-01T06:25:54;20.55;;;11.88;;
34725;SDS011;20951;50.818;4.344;2023-04-01T06:34:05;23.75;;;12.48;;
34725;SDS011;20951;50.818;4.344;2023-04-01T06:37:29;25.05;;;13.15;;
34725;SDS011;20951;50.818;4.344;2023-04-01T06:40:08;24.80;;;13.00;;
34725;SDS011;20951;50.818;4.344;2023-04-01T06:54:05;21.63;;;11.63;;
34725;SDS011;20951;50.818;4.344;2023-04-01T06:56:46;17.08;;;9.95;;
34725;SDS011;20951;50.818;4.344;2023-04-01T06:59:21;17.58;;;11.50;;
34725;SDS011;20951;50.818;4.344;2023-04-01T07:01:55;21.40;;;12.43;;
34725;SDS011;20951;50.818;4.344;2023-04-01T07:04:39;19.25;;;10.48;;
34725;SDS011;20951;50.818;4.344;2023-04-01T07:07:25;16.77;;;9.40;;
34725;SDS011;20951;50.818;4.344;2023-04-01T07:10:02;15.55;;;8.27;;
34725;SDS011;20951;50.818;4.344;2023-04-01T07:12:44;14.27;;;7.85;;
34725;SDS011;20951;50.818;4.344;2023-04-01T07:15:19;12.90;;;8.10;;
34725;SDS011;20951;50.818;4.344;2023-04-01T07:17:58;16.92;;;7.68;;
34725;SDS011;20951;50.818;4.344;2023-04-01T07:20:32;11.40;;;6.85;;
34725;SDS011;20951;50.818;4.344;2023-04-01T07:23:04;11.63;;;7.10;;
34725;SDS011;20951;50.818;4.344;2023-04-01T07:25:34;9.27;;;6.43;;
34725;SDS011;20951;50.818;4.344;2023-04-01T07:28:12;10.88;;;6.95;;
34725;SDS011;20951;50.818;4.344;2023-04-01T07:33:44;13.20;;;7.07;;
34725;SDS011;20951;50.818;4.344;2023-04-01T07:42:01;14.77;;;8.40;;
34725;SDS011;20951;50.818;4.344;2023-04-01T07:50:38;8.13;;;5.50;;
34725;SDS011;20951;50.818;4.344;2023-04-01T07:56:10;5.88;;;3.80;;
34725;SDS011;20951;50.818;4.344;2023-04-01T07:58:58;8.07;;;4.63;;
34725;SDS011;20951;50.818;4.344;2023-04-01T08:15:23;5.28;;;3.03;;
34725;SDS011;20951;50.818;4.344;2023-04-01T08:18:06;6.47;;;3.53;;
34725;SDS011;20951;50.818;4.344;2023-04-01T08:20:47;5.22;;;3.15;;
34725;SDS011;20951;50.818;4.344;2023-04-01T08:23:27;5.68;;;3.67;;
34725;SDS011;20951;50.818;4.344;2023-04-01T08:28:51;5.97;;;3.60;;
34725;SDS011;20951;50.818;4.344;2023-04-01T08:31:25;6.75;;;3.67;;
34725;SDS011;20951;50.818;4.344;2023-04-01T08:34:05;6.22;;;3.45;;
34725;SDS011;20951;50.818;4.344;2023-04-01T08:36:44;4.75;;;2.45;;
34725;SDS011;20951;50.818;4.344;2023-04-01T08:39:21;5.97;;;2.40;;
34725;SDS011;20951;50.818;4.344;2023-04-01T08:45:38;4.25;;;2.47;;
34725;SDS011;20951;50.818;4.344;2023-04-01T08:48:27;4.03;;;2.30;;
34725;SDS011;20951;50.818;4.344;2023-04-01T08:51:51;3.92;;;2.28;;
34725;SDS011;20951;50.818;4.344;2023-04-01T08:54:19;4.88;;;2.22;;
34725;SDS011;20951;50.818;4.344;2023-04-01T09:00:00;4.57;;;2.20;;
34725;SDS011;20951;50.818;4.344;2023-04-01T09:02:39;5.10;;;2.42;;
34725;SDS011;20951;50.818;4.344;2023-04-01T09:05:39;4.97;;;2.45;;
34725;SDS011;20951;50.818;4.344;2023-04-01T09:11:55;4.05;;;2.83;;
34725;SDS011;20951;50.818;4.344;2023-04-01T09:19:39;6.40;;;3.25;;
34725;SDS011;20951;50.818;4.344;2023-04-01T09:25:26;4.95;;;3.17;;
34725;SDS011;20951;50.818;4.344;2023-04-01T09:28:34;5.80;;;3.03;;
34725;SDS011;20951;50.818;4.344;2023-04-01T09:31:32;6.15;;;3.65;;
34725;SDS011;20951;50.818;4.344;2023-04-01T09:42:47;5.82;;;3.30;;
34725;SDS011;20951;50.818;4.344;2023-04-01T09:48:41;4.95;;;3.30;;
34725;SDS011;20951;50.818;4.344;2023-04-01T09:51:37;5.35;;;3.35;;
34725;SDS011;20951;50.818;4.344;2023-04-01T09:54:23;6.30;;;2.95;;
34725;SDS011;20951;50.818;4.344;2023-04-01T09:57:04;5.25;;;2.95;;
34725;SDS011;20951;50.818;4.344;2023-04-01T10:00:10;4.93;;;3.10;;
34725;SDS011;20951;50.818;4.344;2023-04-01T10:06:18;4.15;;;2.53;;
34725;SDS011;20951;50.818;4.344;2023-04-01T10:28:37;4.03;;;2.30;;
34725;SDS011;20951;50.818;4.344;2023-04-01T10:31:32;3.70;;;2.20;;
34725;SDS011;20951;50.818;4.344;2023-04-01T10:49:03;3.97;;;2.25;;
34725;SDS011;20951;50.818;4.344;2023-04-01T10:55:17;5.72;;;2.67;;
34725;SDS011;20951;50.818;4.344;2023-04-01T11:00:44;5.53;;;2.65;;
34725;SDS011;20951;50.818;4.344;2023-04-01T11:06:25;7.22;;;4.13;;
34725;SDS011;20951;50.818;4.344;2023-04-01T11:09:18;5.63;;;3.35;;
34725;SDS011;20951;50.818;4.344;2023-04-01T11:29:04;4.45;;;2.85;;
34725;SDS011;20951;50.818;4.344;2023-04-01T11:31:43;5.82;;;2.50;;
34725;SDS011;20951;50.818;4.344;2023-04-01T11:34:26;5.13;;;3.00;;
34725;SDS011;20951;50.818;4.344;2023-04-01T11:37:02;5.47;;;3.00;;
34725;SDS011;20951;50.818;4.344;2023-04-01T11:40:35;5.30;;;3.22;;
34725;SDS011;20951;50.818;4.344;2023-04-01T11:42:54;4.97;;;2.70;;
34725;SDS011;20951;50.818;4.344;2023-04-01T11:45:36;4.93;;;2.80;;
34725;SDS011;20951;50.818;4.344;2023-04-01T11:48:19;5.70;;;2.85;;
34725;SDS011;20951;50.818;4.344;2023-04-01T11:53:59;7.82;;;2.30;;
34725;SDS011;20951;50.818;4.344;2023-04-01T11:56:55;4.55;;;2.63;;
34725;SDS011;20951;50.818;4.344;2023-04-01T12:05:33;4.93;;;2.75;;
34725;SDS011;20951;50.818;4.344;2023-04-01T12:08:27;8.85;;;3.30;;
34725;SDS011;20951;50.818;4.344;2023-04-01T12:13:55;5.50;;;3.80;;
34725;SDS011;20951;50.818;4.344;2023-04-01T12:16:58;4.97;;;2.78;;
34725;SDS011;20951;50.818;4.344;2023-04-01T12:19:57;5.22;;;3.35;;
34725;SDS011;20951;50.818;4.344;2023-04-01T12:28:38;8.07;;;3.80;;
34725;SDS011;20951;50.818;4.344;2023-04-01T12:34:22;6.10;;;3.53;;
34725;SDS011;20951;50.818;4.344;2023-04-01T12:45:37;6.78;;;3.83;;
34725;SDS011;20951;50.818;4.344;2023-04-01T12:51:06;6.63;;;4.35;;
34725;SDS011;20951;50.818;4.344;2023-04-01T13:13:34;5.75;;;3.78;;
34725;SDS011;20951;50.818;4.344;2023-04-01T13:16:13;7.00;;;3.90;;
34725;SDS011;20951;50.818;4.344;2023-04-01T13:24:31;6.95;;;4.43;;
34725;SDS011;20951;50.818;4.344;2023-04-01T13:35:58;5.05;;;3.10;;
34725;SDS011;20951;50.818;4.344;2023-04-01T13:38:51;4.47;;;3.15;;
34725;SDS011;20951;50.818;4.344;2023-04-01T13:44:38;5.35;;;3.10;;
34725;SDS011;20951;50.818;4.344;2023-04-01T13:52:47;5.15;;;2.70;;
34725;SDS011;20951;50.818;4.344;2023-04-01T13:55:37;4.55;;;2.80;;
34725;SDS011;20951;50.818;4.344;2023-04-01T14:06:56;5.32;;;2.45;;
34725;SDS011;20951;50.818;4.344;2023-04-01T14:09:29;5.25;;;2.55;;
34725;SDS011;20951;50.818;4.344;2023-04-01T14:17:17;3.60;;;1.80;;
34725;SDS011;20951;50.818;4.344;2023-04-01T14:22:46;3.90;;;2.00;;
34725;SDS011;20951;50.818;4.344;2023-04-01T14:28:39;4.82;;;2.60;;
34725;SDS011;20951;50.818;4.344;2023-04-01T14:37:23;4.10;;;2.35;;
34725;SDS011;20951;50.818;4.344;2023-04-01T14:40:22;3.25;;;1.80;;
34725;SDS011;20951;50.818;4.344;2023-04-01T14:49:04;3.15;;;1.73;;
34725;SDS011;20951;50.818;4.344;2023-04-01T14:52:03;3.40;;;1.70;;
34725;SDS011;20951;50.818;4.344;2023-04-01T14:54:38;2.80;;;1.30;;
34725;SDS011;20951;50.818;4.344;2023-04-01T14:59:51;4.57;;;1.42;;
34725;SDS011;20951;50.818;4.344;2023-04-01T15:08:18;3.78;;;1.50;;
34725;SDS011;20951;50.818;4.344;2023-04-01T15:15:56;3.70;;;1.60;;
34725;SDS011;20951;50.818;4.344;2023-04-01T15:36:38;3.65;;;1.85;;
34725;SDS011;20951;50.818;4.344;2023-04-01T15:39:20;4.13;;;1.83;;
34725;SDS011;20951;50.818;4.344;2023-04-01T15:53:09;4.07;;;1.77;;
34725;SDS011;20951;50.818;4.344;2023-04-01T16:01:31;1.83;;;1.10;;
34725;SDS011;20951;50.818;4.344;2023-04-01T16:06:56;4.22;;;1.45;;
34725;SDS011;20951;50.818;4.344;2023-04-01T16:14:55;14.23;;;7.72;;
34725;SDS011;20951;50.818;4.344;2023-04-01T16:17:43;5.93;;;2.53;;
34725;SDS011;20951;50.818;4.344;2023-04-01T16:23:36;3.53;;;1.90;;
34725;SDS011;20951;50.818;4.344;2023-04-01T16:26:18;5.68;;;2.58;;
34725;SDS011;20951;50.818;4.344;2023-04-01T16:37:49;6.22;;;2.30;;
34725;SDS011;20951;50.818;4.344;2023-04-01T16:45:46;4.45;;;1.70;;
34725;SDS011;20951;50.818;4.344;2023-04-01T16:48:27;4.15;;;1.75;;
34725;SDS011;20951;50.818;4.344;2023-04-01T16:51:16;4.82;;;2.00;;
34725;SDS011;20951;50.818;4.344;2023-04-01T16:53:48;4.07;;;1.55;;
34725;SDS011;20951;50.818;4.344;2023-04-01T16:56:23;4.00;;;2.00;;
34725;SDS011;20951;50.818;4.344;2023-04-01T17:02:02;4.78;;;2.45;;
34725;SDS011;20951;50.818;4.344;2023-04-01T17:07:23;4.68;;;2.20;;
34725;SDS011;20951;50.818;4.344;2023-04-01T17:12:55;5.53;;;2.22;;
34725;SDS011;20951;50.818;4.344;2023-04-01T17:18:16;5.90;;;2.80;;
34725;SDS011;20951;50.818;4.344;2023-04-01T17:24:00;5.95;;;3.08;;
34725;SDS011;20951;50.818;4.344;2023-04-01T17:26:56;7.00;;;3.10;;
34725;SDS011;20951;50.818;4.344;2023-04-01T17:29:31;5.25;;;3.08;;
34725;SDS011;20951;50.818;4.344;2023-04-01T17:32:08;6.60;;;3.40;;
34725;SDS011;20951;50.818;4.344;2023-04-01T17:34:41;5.80;;;3.42;;
34725;SDS011;20951;50.818;4.344;2023-04-01T17:40:37;4.97;;;3.47;;
34725;SDS011;20951;50.818;4.344;2023-04-01T17:43:37;7.43;;;4.00;;
34725;SDS011;20951;50.818;4.344;2023-04-01T17:52:00;6.35;;;3.38;;
34725;SDS011;20951;50.818;4.344;2023-04-01T17:54:34;6.60;;;3.70;;
34725;SDS011;20951;50.818;4.344;2023-04-01T18:00:26;5.10;;;3.60;;
34725;SDS011;20951;50.818;4.344;2023-04-01T18:03:42;6.60;;;3.83;;
34725;SDS011;20951;50.818;4.344;2023-04-01T18:06:00;5.90;;;4.18;;
34725;SDS011;20951;50.818;4.344;2023-04-01T18:08:41;7.75;;;4.05;;
34725;SDS011;20951;50.818;4.344;2023-04-01T18:27:04;8.32;;;6.60;;
34725;SDS011;20951;50.818;4.344;2023-04-01T18:29:41;10.85;;;7.70;;
34725;SDS011;20951;50.818;4.344;2023-04-01T18:32:26;15.40;;;10.25;;
34725;SDS011;20951;50.818;4.344;2023-04-01T18:34:55;12.50;;;8.88;;
34725;SDS011;20951;50.818;4.344;2023-04-01T18:37:46;11.73;;;7.93;;
34725;SDS011;20951;50.818;4.344;2023-04-01T18:40:26;12.35;;;8.63;;
34725;SDS011;20951;50.818;4.344;2023-04-01T18:46:09;10.98;;;9.32;;
34725;SDS011;20951;50.818;4.344;2023-04-01T18:51:39;13.68;;;9.57;;
34725;SDS011;20951;50.818;4.344;2023-04-01T18:54:12;11.50;;;10.15;;
34725;SDS011;20951;50.818;4.344;2023-04-01T18:57:13;16.07;;;11.17;;
34725;SDS011;20951;50.818;4.344;2023-04-01T18:59:55;12.18;;;9.88;;
34725;SDS011;20951;50.818;4.344;2023-04-01T19:02:45;13.02;;;10.82;;
34725;SDS011;20951;50.818;4.344;2023-04-01T19:05:30;15.82;;;11.55;;
34725;SDS011;20951;50.818;4.344;2023-04-01T19:19:25;20.23;;;15.75;;
34725;SDS011;20951;50.818;4.344;2023-04-01T19:22:18;19.70;;;16.10;;
34725;SDS011;20951;50.818;4.344;2023-04-01T19:27:49;29.63;;;19.90;;
34725;SDS011;20951;50.818;4.344;2023-04-01T19:35:36;31.98;;;22.30;;
34725;SDS011;20951;50.818;4.344;2023-04-01T19:38:29;40.25;;;25.33;;
34725;SDS011;20951;50.818;4.344;2023-04-01T19:41:22;36.22;;;25.10;;
34725;SDS011;20951;50.818;4.344;2023-04-01T19:46:59;40.10;;;25.35;;
34725;SDS011;20951;50.818;4.344;2023-04-01T19:55:13;35.10;;;24.38;;
34725;SDS011;20951;50.818;4.344;2023-04-01T20:00:51;38.00;;;24.77;;
34725;SDS011;20951;50.818;4.344;2023-04-01T20:08:49;38.47;;;22.83;;
34725;SDS011;20951;50.818;4.344;2023-04-01T20:16:40;44.60;;;24.92;;
34725;SDS011;20951;50.818;4.344;2023-04-01T20:19:08;36.92;;;23.42;;
34725;SDS011;20951;50.818;4.344;2023-04-01T20:21:45;49.22;;;27.02;;
34725;SDS011;20951;50.818;4.344;2023-04-01T20:26:39;35.92;;;23.52;;
34725;SDS011;20951;50.818;4.344;2023-04-01T20:32:29;41.65;;;24.58;;
34725;SDS011;20951;50.818;4.344;2023-04-01T20:38:23;43.13;;;24.83;;
34725;SDS011;20951;50.818;4.344;2023-04-01T20:41:20;44.67;;;23.65;;
34725;SDS011;20951;50.818;4.344;2023-04-01T20:44:12;46.35;;;24.98;;
34725;SDS011;20951;50.818;4.344;2023-04-01T20:52:56;40.42;;;23.35;;
34725;SDS011;20951;50.818;4.344;2023-04-01T20:58:24;41.03;;;24.08;;
34725;SDS011;20951;50.818;4.344;2023-04-01T21:01:13;43.75;;;25.02;;
34725;SDS011;20951;50.818;4.344;2023-04-01T21:27:00;74.53;;;37.25;;
34725;SDS011;20951;50.818;4.344;2023-04-01T21:35:18;73.53;;;35.75;;
34725;SDS011;20951;50.818;4.344;2023-04-01T21:43:09;68.75;;;34.42;;
34725;SDS011;20951;50.818;4.344;2023-04-01T21:57:18;59.70;;;30.02;;
34725;SDS011;20951;50.818;4.344;2023-04-01T22:05:27;52.45;;;27.77;;
34725;SDS011;20951;50.818;4.344;2023-04-01T22:13:39;48.20;;;26.57;;
34725;SDS011;20951;50.818;4.344;2023-04-01T22:18:46;52.25;;;27.40;;
34725;SDS011;20951;50.818;4.344;2023-04-01T22:24:41;55.80;;;29.08;;
34725;SDS011;20951;50.818;4.344;2023-04-01T22:27:24;53.88;;;29.63;;
34725;SDS011;20951;50.818;4.344;2023-04-01T22:40:25;50.17;;;30.38;;
34725;SDS011;20951;50.818;4.344;2023-04-01T22:43:11;49.70;;;31.40;;
34725;SDS011;20951;50.818;4.344;2023-04-01T22:51:13;58.08;;;36.35;;
34725;SDS011;20951;50.818;4.344;2023-04-01T22:56:28;55.17;;;35.22;;
34725;SDS011;20951;50.818;4.344;2023-04-01T23:01:45;54.53;;;34.70;;
34725;SDS011;20951;50.818;4.344;2023-04-01T23:04:29;56.80;;;35.05;;
34725;SDS011;20951;50.818;4.344;2023-04-01T23:06:58;53.10;;;32.42;;
34725;SDS011;20951;50.818;4.344;2023-04-01T23:09:27;52.90;;;32.28;;
34725;SDS011;20951;50.818;4.344;2023-04-01T23:12:29;51.90;;;31.85;;
34725;SDS011;20951;50.818;4.344;2023-04-01T23:14:51;45.15;;;28.15;;
34725;SDS011;20951;50.818;4.344;2023-04-01T23:26:16;40.45;;;26.58;;
34725;SDS011;20951;50.818;4.344;2023-04-01T23:29:01;43.13;;;27.55;;
34725;SDS011;20951;50.818;4.344;2023-04-01T23:31:33;43.85;;;28.13;;
34725;SDS011;20951;50.818;4.344;2023-04-01T23:34:18;47.08;;;28.30;;
34725;SDS011;20951;50.818;4.344;2023-04-01T23:36:51;41.67;;;26.52;;
34725;SDS011;20951;50.818;4.344;2023-04-01T23:39:25;41.03;;;26.25;;
34725;SDS011;20951;50.818;4.344;2023-04-01T23:41:53;43.17;;;27.27;;
34725;SDS011;20951;50.818;4.344;2023-04-01T23:44:28;47.90;;;28.85;;
34725;SDS011;20951;50.818;4.344;2023-04-01T23:46:55;42.22;;;27.55;;
34725;SDS011;20951;50.818;4.344;2023-04-01T23:49:25;40.38;;;26.63;;
34725;SDS011;20951;50.818;4.344;2023-04-01T23:52:08;47.22;;;29.27;;
34725;SDS011;20951;50.818;4.344;2023-04-01T23:54:50;45.80;;;29.17;;
34725;SDS011;20951;50.818;4.344;2023-04-01T23:57:28;49.88;;;30.42;;
